Terminal Aerodrome Forecast
Issued by NWS

Home | Current Version | Previous Version | Text Only | Print | Product List | Glossary Off
Versions: 1 2 3 4 5 6 7 8 9 10 11 12 13 14 15 16 17 18 19 20

643
FTUS43 KMPX 232150 AAA
TAFRNH
TAF AMD
KRNH 232150Z 2322/2418 15012KT 3SM -SHRA VCTS SCT004 BKN018
      OVC035CB
     FM241000 21008KT P6SM BKN250
     FM241700 28010G17KT P6SM SCT250=

USA.gov is the U.S. government's official web portal to all federal, state and local government web resources and services.